Veslos, Denmark
Current Conditions -  °F | °C
As of 9:20 AM on Tuesday 27 Jan 2015 (Local Time) from EKYT Reporting Station
Clear Clear  
Wind Chill: 33°   Ceiling: Unl
Heat Index: 37°   Visibility: 6mi
Dew Point: 32°   Wind: 6mph
Humidity: 81%   Direction: 330°NNW
Pressure: 29.88"   Gusts: NA
Location:  57.02°N, 8.97°E
Report Text: EKYT 270820Z 33005KT CAVOK 03/M00 Q1012 R26/290095
Loading
Personal Weather Stations






























Interactive Weather Map New forecast layout! Learn more

10-Day Weather Forecast

Advertisements
Track Severe Weather on mobile